Time,TemperatureF,DewpointF,PressureIn,WindDirection,WindDirectionDegrees,WindSpeedMPH,WindSpeedGustMPH,Humidity,HourlyPrecipIn,Conditions,Clouds,dailyrainin,SoftwareType,DateUTC
2013-11-13 00:01:00,44.1,33.1,29.53,North,-999,-999.0,0.0,65,0.00,,,0.00,LWC V2.10 B1813,2013-11-13 07:01:00,
2013-11-13 00:06:00,43.9,32.9,29.53,North,-999,-999.0,0.0,65,0.00,,,0.00,LWC V2.10 B1813,2013-11-13 07:06:00,
2013-11-13 00:11:00,43.9,32.9,29.53,North,-999,-999.0,0.0,65,0.00,,,0.00,LWC V2.10 B1813,2013-11-13 07:11:00,
2013-11-13 00:16:00,43.7,32.7,29.53,North,-999,-999.0,0.0,65,0.00,,,0.00,LWC V2.10 B1813,2013-11-13 07:16:00,
2013-11-13 00:21:00,43.6,32.6,29.53,North,-999,-999.0,0.0,65,0.00,,,0.00,LWC V2.10 B1813,2013-11-13 07:21:00,
2013-11-13 00:26:00,43.5,32.9,29.53,North,-999,-999.0,0.0,66,0.00,,,0.00,LWC V2.10 B1813,2013-11-13 07:26:00,
2013-11-13 00:31:00,43.5,32.9,29.53,North,-999,-999.0,0.0,66,0.00,,,0.00,LWC V2.10 B1813,2013-11-13 07:31:00,
2013-11-13 00:36:00,43.4,32.4,29.53,North,-999,-999.0,0.0,65,0.00,,,0.00,LWC V2.10 B1813,2013-11-13 07:36:00,
2013-11-13 00:41:00,43.3,32.7,29.53,North,-999,-999.0,0.0,66,0.00,,,0.00,LWC V2.10 B1813,2013-11-13 07:41:00,
2013-11-13 00:46:00,43.3,32.7,29.53,North,-999,-999.0,0.0,66,0.00,,,0.00,LWC V2.10 B1813,2013-11-13 07:46:00,
2013-11-13 00:51:00,43.3,32.7,29.53,North,-999,-999.0,0.0,66,0.00,,,0.00,LWC V2.10 B1813,2013-11-13 07:51:00,
2013-11-13 00:56:00,43.2,32.6,29.53,North,-999,-999.0,0.0,66,0.00,,,0.00,LWC V2.10 B1813,2013-11-13 07:56:00,
2013-11-13 01:01:00,43.1,32.9,29.53,North,-999,-999.0,0.0,67,0.00,,,0.00,LWC V2.10 B1813,2013-11-13 08:01:00,
2013-11-13 01:06:00,43.0,32.8,29.53,North,-999,-999.0,0.0,67,0.00,,,0.00,LWC V2.10 B1813,2013-11-13 08:06:00,
2013-11-13 01:11:00,43.0,32.8,29.53,North,-999,-999.0,0.0,67,0.00,,,0.00,LWC V2.10 B1813,2013-11-13 08:11:00,
2013-11-13 01:16:00,42.9,32.7,29.53,North,-999,-999.0,0.0,67,0.00,,,0.00,LWC V2.10 B1813,2013-11-13 08:16:00,
2013-11-13 01:21:00,42.8,32.6,29.53,North,-999,-999.0,0.0,67,0.00,,,0.00,LWC V2.10 B1813,2013-11-13 08:21:00,
2013-11-13 01:26:00,42.7,32.5,29.53,North,-999,-999.0,0.0,67,0.00,,,0.00,LWC V2.10 B1813,2013-11-13 08:26:00,
2013-11-13 01:31:00,42.6,32.4,29.53,North,-999,-999.0,0.0,67,0.00,,,0.00,LWC V2.10 B1813,2013-11-13 08:31:00,
2013-11-13 01:36:00,42.4,32.2,29.53,North,-999,-999.0,0.0,67,0.00,,,0.00,LWC V2.10 B1813,2013-11-13 08:36:00,
2013-11-13 01:42:00,42.3,32.1,29.53,North,-999,-999.0,0.0,67,0.00,,,0.00,LWC V2.10 B1813,2013-11-13 08:42:00,
2013-11-13 01:47:00,42.2,32.0,29.53,North,-999,-999.0,0.0,67,0.00,,,0.00,LWC V2.10 B1813,2013-11-13 08:47:00,
2013-11-13 01:52:00,42.0,31.9,29.53,North,-999,-999.0,0.0,67,0.00,,,0.00,LWC V2.10 B1813,2013-11-13 08:52:00,
2013-11-13 01:57:00,41.9,32.1,29.53,North,-999,-999.0,0.0,68,0.00,,,0.00,LWC V2.10 B1813,2013-11-13 08:57:00,
2013-11-13 02:02:00,41.9,32.1,29.53,North,-999,-999.0,0.0,68,0.00,,,0.00,LWC V2.10 B1813,2013-11-13 09:02:00,
2013-11-13 02:07:00,41.9,32.1,29.53,North,-999,-999.0,0.0,68,0.00,,,0.00,LWC V2.10 B1813,2013-11-13 09:07:00,
2013-11-13 02:11:00,41.9,32.1,29.53,North,-999,-999.0,0.0,68,0.00,,,0.00,LWC V2.10 B1813,2013-11-13 09:11:00,
2013-11-13 02:16:00,41.8,32.0,29.53,North,-999,-999.0,0.0,68,0.00,,,0.00,LWC V2.10 B1813,2013-11-13 09:16:00,
2013-11-13 02:21:00,41.8,32.4,29.53,North,-999,-999.0,0.0,69,0.00,,,0.00,LWC V2.10 B1813,2013-11-13 09:21:00,
2013-11-13 02:26:00,41.7,32.3,29.53,North,-999,-999.0,0.0,69,0.00,,,0.00,LWC V2.10 B1813,2013-11-13 09:26:00,
2013-11-13 02:31:00,41.7,32.3,29.53,North,-999,-999.0,0.0,69,0.00,,,0.00,LWC V2.10 B1813,2013-11-13 09:31:00,
2013-11-13 02:36:00,41.6,32.2,29.53,North,-999,-999.0,0.0,69,0.00,,,0.00,LWC V2.10 B1813,2013-11-13 09:36:00,
2013-11-13 02:41:00,41.6,32.6,29.53,North,-999,-999.0,0.0,70,0.00,,,0.00,LWC V2.10 B1813,2013-11-13 09:41:00,
2013-11-13 02:46:00,41.5,32.1,29.53,North,-999,-999.0,0.0,69,0.00,,,0.00,LWC V2.10 B1813,2013-11-13 09:46:00,
2013-11-13 02:51:00,41.4,32.0,29.53,North,-999,-999.0,0.0,69,0.00,,,0.00,LWC V2.10 B1813,2013-11-13 09:51:00,
2013-11-13 02:56:00,41.4,32.4,29.53,North,-999,-999.0,0.0,70,0.00,,,0.00,LWC V2.10 B1813,2013-11-13 09:56:00,
2013-11-13 03:01:00,41.4,32.4,29.53,North,-999,-999.0,0.0,70,0.00,,,0.00,LWC V2.10 B1813,2013-11-13 10:01:00,
2013-11-13 03:06:00,41.3,32.3,29.53,North,-999,-999.0,0.0,70,0.00,,,0.00,LWC V2.10 B1813,2013-11-13 10:06:00,
2013-11-13 03:12:00,41.2,32.2,29.53,North,-999,-999.0,0.0,70,0.00,,,0.00,LWC V2.10 B1813,2013-11-13 10:12:00,
2013-11-13 03:17:00,41.1,32.1,29.53,North,-999,-999.0,0.0,70,0.00,,,0.00,LWC V2.10 B1813,2013-11-13 10:17:00,
2013-11-13 03:22:00,41.0,32.0,29.53,North,-999,-999.0,0.0,70,0.00,,,0.00,LWC V2.10 B1813,2013-11-13 10:22:00,
2013-11-13 03:27:00,40.8,31.4,29.53,North,-999,-999.0,0.0,69,0.00,,,0.00,LWC V2.10 B1813,2013-11-13 10:27:00,
2013-11-13 03:31:00,40.9,31.9,29.53,North,-999,-999.0,0.0,70,0.00,,,0.00,LWC V2.10 B1813,2013-11-13 10:31:00,
2013-11-13 03:36:00,40.8,31.8,29.53,North,-999,-999.0,0.0,70,0.00,,,0.00,LWC V2.10 B1813,2013-11-13 10:36:00,
2013-11-13 03:41:00,40.7,31.7,29.53,North,-999,-999.0,0.0,70,0.00,,,0.00,LWC V2.10 B1813,2013-11-13 10:41:00,
2013-11-13 03:46:00,40.6,31.6,29.53,North,-999,-999.0,0.0,70,0.00,,,0.00,LWC V2.10 B1813,2013-11-13 10:46:00,
2013-11-13 03:51:00,40.5,31.5,29.53,North,-999,-999.0,0.0,70,0.00,,,0.00,LWC V2.10 B1813,2013-11-13 10:51:00,
2013-11-13 03:56:00,40.4,31.4,29.53,North,-999,-999.0,0.0,70,0.00,,,0.00,LWC V2.10 B1813,2013-11-13 10:56:00,
2013-11-13 04:02:00,40.4,31.4,29.53,North,-999,-999.0,0.0,70,0.00,,,0.00,LWC V2.10 B1813,2013-11-13 11:02:00,
2013-11-13 04:07:00,40.3,31.3,29.53,North,-999,-999.0,0.0,70,0.00,,,0.00,LWC V2.10 B1813,2013-11-13 11:07:00,
2013-11-13 04:12:00,40.1,31.1,29.53,North,-999,-999.0,0.0,70,0.00,,,0.00,LWC V2.10 B1813,2013-11-13 11:12:00,
2013-11-13 04:17:00,40.0,31.0,29.53,North,-999,-999.0,0.0,70,0.00,,,0.00,LWC V2.10 B1813,2013-11-13 11:17:00,
2013-11-13 04:22:00,39.9,30.9,29.53,North,-999,-999.0,0.0,70,0.00,,,0.00,LWC V2.10 B1813,2013-11-13 11:22:00,
2013-11-13 04:27:00,39.8,30.8,29.53,North,-999,-999.0,0.0,70,0.00,,,0.00,LWC V2.10 B1813,2013-11-13 11:27:00,
2013-11-13 04:32:00,39.7,30.7,29.53,North,-999,-999.0,0.0,70,0.00,,,0.00,LWC V2.10 B1813,2013-11-13 11:32:00,
2013-11-13 04:37:00,39.8,30.8,29.53,North,-999,-999.0,0.0,70,0.00,,,0.00,LWC V2.10 B1813,2013-11-13 11:37:00,
2013-11-13 04:42:00,39.5,30.5,29.53,North,-999,-999.0,0.0,70,0.00,,,0.00,LWC V2.10 B1813,2013-11-13 11:42:00,
2013-11-13 04:47:00,39.4,30.4,29.53,North,-999,-999.0,0.0,70,0.00,,,0.00,LWC V2.10 B1813,2013-11-13 11:47:00,
2013-11-13 04:52:00,39.3,30.3,29.53,North,-999,-999.0,0.0,70,0.00,,,0.00,LWC V2.10 B1813,2013-11-13 11:52:00,
2013-11-13 04:57:00,39.3,30.3,29.53,North,-999,-999.0,0.0,70,0.00,,,0.00,LWC V2.10 B1813,2013-11-13 11:57:00,
2013-11-13 05:02:00,39.1,30.2,29.53,North,-999,-999.0,0.0,70,0.00,,,0.00,LWC V2.10 B1813,2013-11-13 12:02:00,
2013-11-13 05:07:00,39.0,30.1,29.53,North,-999,-999.0,0.0,70,0.00,,,0.00,LWC V2.10 B1813,2013-11-13 12:07:00,
2013-11-13 05:12:00,39.1,30.2,29.53,North,-999,-999.0,0.0,70,0.00,,,0.00,LWC V2.10 B1813,2013-11-13 12:12:00,
2013-11-13 05:17:00,39.0,30.1,29.53,North,-999,-999.0,0.0,70,0.00,,,0.00,LWC V2.10 B1813,2013-11-13 12:17:00,
2013-11-13 05:22:00,38.9,30.3,29.53,North,-999,-999.0,0.0,71,0.00,,,0.00,LWC V2.10 B1813,2013-11-13 12:22:00,
2013-11-13 05:27:00,38.8,30.2,29.53,North,-999,-999.0,0.0,71,0.00,,,0.00,LWC V2.10 B1813,2013-11-13 12:27:00,
2013-11-13 05:32:00,38.8,30.2,29.53,North,-999,-999.0,0.0,71,0.00,,,0.00,LWC V2.10 B1813,2013-11-13 12:32:00,
2013-11-13 05:37:00,38.8,29.9,29.53,North,-999,-999.0,0.0,70,0.00,,,0.00,LWC V2.10 B1813,2013-11-13 12:37:00,
2013-11-13 05:42:00,38.8,30.2,29.53,North,-999,-999.0,0.0,71,0.00,,,0.00,LWC V2.10 B1813,2013-11-13 12:42:00,
2013-11-13 05:47:00,38.8,30.2,29.53,North,-999,-999.0,0.0,71,0.00,,,0.00,LWC V2.10 B1813,2013-11-13 12:47:00,
2013-11-13 05:52:00,38.7,30.1,29.53,North,-999,-999.0,0.0,71,0.00,,,0.00,LWC V2.10 B1813,2013-11-13 12:52:00,
2013-11-13 05:57:00,38.6,30.0,29.53,North,-999,-999.0,0.0,71,0.00,,,0.00,LWC V2.10 B1813,2013-11-13 12:57:00,
2013-11-13 06:02:00,38.5,29.9,29.53,North,-999,-999.0,0.0,71,0.00,,,0.00,LWC V2.10 B1813,2013-11-13 13:02:00,
2013-11-13 06:07:00,38.4,29.8,29.53,North,-999,-999.0,0.0,71,0.00,,,0.00,LWC V2.10 B1813,2013-11-13 13:07:00,
2013-11-13 06:12:00,38.3,29.7,29.53,North,-999,-999.0,0.0,71,0.00,,,0.00,LWC V2.10 B1813,2013-11-13 13:12:00,
2013-11-13 06:17:00,38.2,29.3,29.53,North,-999,-999.0,0.0,70,0.00,,,0.00,LWC V2.10 B1813,2013-11-13 13:17:00,
2013-11-13 06:22:00,38.2,29.6,29.53,North,-999,-999.0,0.0,71,0.00,,,0.00,LWC V2.10 B1813,2013-11-13 13:22:00,
2013-11-13 06:27:00,38.1,29.5,29.53,North,-999,-999.0,0.0,71,0.00,,,0.00,LWC V2.10 B1813,2013-11-13 13:27:00,
2013-11-13 06:32:00,38.1,29.2,29.53,North,-999,-999.0,0.0,70,0.00,,,0.00,LWC V2.10 B1813,2013-11-13 13:32:00,
2013-11-13 06:37:00,38.0,29.4,29.53,North,-999,-999.0,0.0,71,0.00,,,0.00,LWC V2.10 B1813,2013-11-13 13:37:00,
2013-11-13 06:42:00,38.1,29.5,29.53,North,-999,-999.0,0.0,71,0.00,,,0.00,LWC V2.10 B1813,2013-11-13 13:42:00,
2013-11-13 06:47:00,38.0,29.4,29.53,North,-999,-999.0,0.0,71,0.00,,,0.00,LWC V2.10 B1813,2013-11-13 13:47:00,
2013-11-13 06:52:00,38.1,29.5,29.53,North,-999,-999.0,0.0,71,0.00,,,0.00,LWC V2.10 B1813,2013-11-13 13:52:00,
2013-11-13 06:57:00,38.1,29.5,29.53,North,-999,-999.0,0.0,71,0.00,,,0.00,LWC V2.10 B1813,2013-11-13 13:57:00,
2013-11-13 07:02:00,38.2,30.0,29.53,North,-999,-999.0,0.0,72,0.00,,,0.00,LWC V2.10 B1813,2013-11-13 14:02:00,
2013-11-13 07:07:00,38.3,30.1,29.53,North,-999,-999.0,0.0,72,0.00,,,0.00,LWC V2.10 B1813,2013-11-13 14:07:00,
2013-11-13 07:12:00,38.6,30.4,29.53,North,-999,-999.0,0.0,72,0.00,,,0.00,LWC V2.10 B1813,2013-11-13 14:12:00,
2013-11-13 07:17:00,38.8,30.6,29.53,North,-999,-999.0,0.0,72,0.00,,,0.00,LWC V2.10 B1813,2013-11-13 14:17:00,
2013-11-13 07:22:00,39.0,30.8,29.53,North,-999,-999.0,0.0,72,0.00,,,0.00,LWC V2.10 B1813,2013-11-13 14:22:00,
2013-11-13 07:27:00,39.3,30.7,29.53,North,-999,-999.0,0.0,71,0.00,,,0.00,LWC V2.10 B1813,2013-11-13 14:27:00,
2013-11-13 07:32:00,39.4,30.8,29.53,North,-999,-999.0,0.0,71,0.00,,,0.00,LWC V2.10 B1813,2013-11-13 14:32:00,
2013-11-13 07:37:00,39.7,31.1,29.53,North,-999,-999.0,0.0,71,0.00,,,0.00,LWC V2.10 B1813,2013-11-13 14:37:00,
2013-11-13 07:42:00,40.0,31.4,29.53,North,-999,-999.0,0.0,71,0.00,,,0.00,LWC V2.10 B1813,2013-11-13 14:42:00,
2013-11-13 07:47:00,40.2,31.6,29.53,North,-999,-999.0,0.0,71,0.00,,,0.00,LWC V2.10 B1813,2013-11-13 14:47:00,
2013-11-13 07:52:00,40.3,31.3,29.53,North,-999,-999.0,0.0,70,0.00,,,0.00,LWC V2.10 B1813,2013-11-13 14:52:00,
2013-11-13 07:57:00,40.4,31.8,29.53,North,-999,-999.0,0.0,71,0.00,,,0.00,LWC V2.10 B1813,2013-11-13 14:57:00,
2013-11-13 08:02:00,40.4,31.4,29.53,North,-999,-999.0,0.0,70,0.00,,,0.00,LWC V2.10 B1813,2013-11-13 15:02:00,
2013-11-13 08:07:00,40.7,31.7,29.53,North,-999,-999.0,0.0,70,0.00,,,0.00,LWC V2.10 B1813,2013-11-13 15:07:00,
2013-11-13 08:12:00,40.8,31.8,29.53,North,-999,-999.0,0.0,70,0.00,,,0.00,LWC V2.10 B1813,2013-11-13 15:12:00,
2013-11-13 08:17:00,41.1,32.1,29.53,North,-999,-999.0,0.0,70,0.00,,,0.00,LWC V2.10 B1813,2013-11-13 15:17:00,
2013-11-13 08:22:00,41.4,32.4,29.53,North,-999,-999.0,0.0,70,0.00,,,0.00,LWC V2.10 B1813,2013-11-13 15:22:00,
2013-11-13 08:27:00,41.6,32.2,29.53,North,-999,-999.0,0.0,69,0.00,,,0.00,LWC V2.10 B1813,2013-11-13 15:27:00,
2013-11-13 08:32:00,41.8,32.4,29.53,North,-999,-999.0,0.0,69,0.00,,,0.00,LWC V2.10 B1813,2013-11-13 15:32:00,
2013-11-13 08:37:00,41.9,32.5,29.53,North,-999,-999.0,0.0,69,0.00,,,0.00,LWC V2.10 B1813,2013-11-13 15:37:00,
2013-11-13 08:42:00,42.1,32.7,29.53,North,-999,-999.0,0.0,69,0.00,,,0.00,LWC V2.10 B1813,2013-11-13 15:42:00,
2013-11-13 08:47:00,42.2,32.4,29.53,North,-999,-999.0,0.0,68,0.00,,,0.00,LWC V2.10 B1813,2013-11-13 15:47:00,
2013-11-13 08:52:00,42.3,32.5,29.53,North,-999,-999.0,0.0,68,0.00,,,0.00,LWC V2.10 B1813,2013-11-13 15:52:00,
2013-11-13 08:57:00,42.4,32.6,29.53,North,-999,-999.0,0.0,68,0.00,,,0.00,LWC V2.10 B1813,2013-11-13 15:57:00,
2013-11-13 09:02:00,42.4,32.6,29.53,North,-999,-999.0,0.0,68,0.00,,,0.00,LWC V2.10 B1813,2013-11-13 16:02:00,
2013-11-13 09:07:00,42.6,32.8,29.53,North,-999,-999.0,0.0,68,0.00,,,0.00,LWC V2.10 B1813,2013-11-13 16:07:00,
2013-11-13 09:12:00,42.9,32.7,29.53,North,-999,-999.0,0.0,67,0.00,,,0.00,LWC V2.10 B1813,2013-11-13 16:12:00,
2013-11-13 09:17:00,43.0,32.8,29.53,North,-999,-999.0,0.0,67,0.00,,,0.00,LWC V2.10 B1813,2013-11-13 16:17:00,
2013-11-13 09:22:00,43.2,32.6,29.53,North,-999,-999.0,0.0,66,0.00,,,0.00,LWC V2.10 B1813,2013-11-13 16:22:00,
2013-11-13 09:27:00,43.4,32.8,29.53,North,-999,-999.0,0.0,66,0.00,,,0.00,LWC V2.10 B1813,2013-11-13 16:27:00,
2013-11-13 09:32:00,43.6,33.0,29.53,North,-999,-999.0,0.0,66,0.00,,,0.00,LWC V2.10 B1813,2013-11-13 16:32:00,
2013-11-13 09:37:00,43.8,33.2,29.53,North,-999,-999.0,0.0,66,0.00,,,0.00,LWC V2.10 B1813,2013-11-13 16:37:00,
2013-11-13 09:42:00,44.0,33.4,29.53,North,-999,-999.0,0.0,66,0.00,,,0.00,LWC V2.10 B1813,2013-11-13 16:42:00,
2013-11-13 09:47:00,44.3,33.7,29.53,North,-999,-999.0,0.0,66,0.00,,,0.00,LWC V2.10 B1813,2013-11-13 16:47:00,
2013-11-13 09:52:00,44.6,33.6,29.53,North,-999,-999.0,0.0,65,0.00,,,0.00,LWC V2.10 B1813,2013-11-13 16:52:00,
2013-11-13 09:57:00,44.8,33.8,29.53,North,-999,-999.0,0.0,65,0.00,,,0.00,LWC V2.10 B1813,2013-11-13 16:57:00,
2013-11-13 10:02:00,45.1,34.0,29.53,North,-999,-999.0,0.0,65,0.00,,,0.00,LWC V2.10 B1813,2013-11-13 17:02:00,
2013-11-13 10:07:00,45.3,34.2,29.53,North,-999,-999.0,0.0,65,0.00,,,0.00,LWC V2.10 B1813,2013-11-13 17:07:00,
2013-11-13 10:12:00,45.5,34.0,29.53,North,-999,-999.0,0.0,64,0.00,,,0.00,LWC V2.10 B1813,2013-11-13 17:12:00,
2013-11-13 10:17:00,45.8,34.3,29.53,North,-999,-999.0,0.0,64,0.00,,,0.00,LWC V2.10 B1813,2013-11-13 17:17:00,
2013-11-13 10:22:00,46.0,34.5,29.53,North,-999,-999.0,0.0,64,0.00,,,0.00,LWC V2.10 B1813,2013-11-13 17:22:00,
2013-11-13 10:27:00,46.3,34.8,29.53,North,-999,-999.0,0.0,64,0.00,,,0.00,LWC V2.10 B1813,2013-11-13 17:27:00,
2013-11-13 10:32:00,46.5,35.0,29.53,North,-999,-999.0,0.0,64,0.00,,,0.00,LWC V2.10 B1813,2013-11-13 17:32:00,
2013-11-13 10:37:00,46.5,35.0,29.53,North,-999,-999.0,0.0,64,0.00,,,0.00,LWC V2.10 B1813,2013-11-13 17:37:00,
2013-11-13 10:42:00,46.7,34.8,29.53,North,-999,-999.0,0.0,63,0.00,,,0.00,LWC V2.10 B1813,2013-11-13 17:42:00,
2013-11-13 10:47:00,46.7,34.8,29.53,North,-999,-999.0,0.0,63,0.00,,,0.00,LWC V2.10 B1813,2013-11-13 17:47:00,
2013-11-13 10:52:00,46.8,35.3,29.53,North,-999,-999.0,0.0,64,0.00,,,0.00,LWC V2.10 B1813,2013-11-13 17:52:00,
2013-11-13 10:57:00,47.0,35.1,29.53,North,-999,-999.0,0.0,63,0.00,,,0.00,LWC V2.10 B1813,2013-11-13 17:57:00,
2013-11-13 11:02:00,47.2,35.3,29.53,North,-999,-999.0,0.0,63,0.00,,,0.00,LWC V2.10 B1813,2013-11-13 18:02:00,
2013-11-13 11:07:00,47.4,35.4,29.53,North,-999,-999.0,0.0,63,0.00,,,0.00,LWC V2.10 B1813,2013-11-13 18:07:00,
2013-11-13 11:12:00,47.5,35.1,29.53,North,-999,-999.0,0.0,62,0.00,,,0.00,LWC V2.10 B1813,2013-11-13 18:12:00,
2013-11-13 11:17:00,47.7,35.3,29.53,North,-999,-999.0,0.0,62,0.00,,,0.00,LWC V2.10 B1813,2013-11-13 18:17:00,
2013-11-13 11:22:00,47.9,35.1,29.53,North,-999,-999.0,0.0,61,0.00,,,0.00,LWC V2.10 B1813,2013-11-13 18:22:00,
2013-11-13 11:27:00,48.2,35.4,29.53,North,-999,-999.0,0.0,61,0.00,,,0.00,LWC V2.10 B1813,2013-11-13 18:27:00,
2013-11-13 11:32:00,48.3,35.5,29.53,North,-999,-999.0,0.0,61,0.00,,,0.00,LWC V2.10 B1813,2013-11-13 18:32:00,
2013-11-13 11:37:00,48.6,35.8,29.53,North,-999,-999.0,0.0,61,0.00,,,0.00,LWC V2.10 B1813,2013-11-13 18:37:00,
2013-11-13 11:42:00,48.7,35.9,29.53,North,-999,-999.0,0.0,61,0.00,,,0.00,LWC V2.10 B1813,2013-11-13 18:42:00,
2013-11-13 11:47:00,48.8,35.5,29.53,North,-999,-999.0,0.0,60,0.00,,,0.00,LWC V2.10 B1813,2013-11-13 18:47:00,
2013-11-13 11:52:00,49.0,35.7,29.53,North,-999,-999.0,0.0,60,0.00,,,0.00,LWC V2.10 B1813,2013-11-13 18:52:00,
2013-11-13 11:57:00,49.2,35.9,29.53,North,-999,-999.0,0.0,60,0.00,,,0.00,LWC V2.10 B1813,2013-11-13 18:57:00,
2013-11-13 12:02:00,49.4,35.7,29.53,North,-999,-999.0,0.0,59,0.00,,,0.00,LWC V2.10 B1813,2013-11-13 19:02:00,
2013-11-13 12:07:00,49.6,35.9,29.53,North,-999,-999.0,0.0,59,0.00,,,0.00,LWC V2.10 B1813,2013-11-13 19:07:00,
2013-11-13 12:12:00,49.8,35.6,29.53,North,-999,-999.0,0.0,58,0.00,,,0.00,LWC V2.10 B1813,2013-11-13 19:12:00,
2013-11-13 12:17:00,49.9,35.7,29.53,North,-999,-999.0,0.0,58,0.00,,,0.00,LWC V2.10 B1813,2013-11-13 19:17:00,
2013-11-13 12:22:00,50.1,35.9,29.53,North,-999,-999.0,0.0,58,0.00,,,0.00,LWC V2.10 B1813,2013-11-13 19:22:00,
2013-11-13 12:27:00,50.2,36.0,29.53,North,-999,-999.0,0.0,58,0.00,,,0.00,LWC V2.10 B1813,2013-11-13 19:27:00,
2013-11-13 12:32:00,50.4,36.2,29.53,North,-999,-999.0,0.0,58,0.00,,,0.00,LWC V2.10 B1813,2013-11-13 19:32:00,
2013-11-13 12:37:00,50.6,36.4,29.53,North,-999,-999.0,0.0,58,0.00,,,0.00,LWC V2.10 B1813,2013-11-13 19:37:00,
2013-11-13 12:42:00,50.8,36.6,29.53,North,-999,-999.0,0.0,58,0.00,,,0.00,LWC V2.10 B1813,2013-11-13 19:42:00,
2013-11-13 12:47:00,51.0,36.7,29.53,North,-999,-999.0,0.0,58,0.00,,,0.00,LWC V2.10 B1813,2013-11-13 19:47:00,
2013-11-13 12:52:00,51.3,36.6,29.53,North,-999,-999.0,0.0,57,0.00,,,0.00,LWC V2.10 B1813,2013-11-13 19:52:00,
2013-11-13 12:57:00,51.5,36.8,29.53,North,-999,-999.0,0.0,57,0.00,,,0.00,LWC V2.10 B1813,2013-11-13 19:57:00,
2013-11-13 13:02:00,51.9,36.7,29.53,North,-999,-999.0,0.0,56,0.00,,,0.00,LWC V2.10 B1813,2013-11-13 20:02:00,
2013-11-13 13:07:00,52.2,37.0,29.53,North,-999,-999.0,0.0,56,0.00,,,0.00,LWC V2.10 B1813,2013-11-13 20:07:00,
2013-11-13 13:12:00,52.5,37.3,29.53,North,-999,-999.0,0.0,56,0.00,,,0.00,LWC V2.10 B1813,2013-11-13 20:12:00,
2013-11-13 13:17:00,52.6,37.4,29.53,North,-999,-999.0,0.0,56,0.00,,,0.00,LWC V2.10 B1813,2013-11-13 20:17:00,
2013-11-13 13:22:00,52.8,37.5,29.53,North,-999,-999.0,0.0,56,0.00,,,0.00,LWC V2.10 B1813,2013-11-13 20:22:00,
2013-11-13 13:27:00,53.0,37.3,29.53,North,-999,-999.0,0.0,55,0.00,,,0.00,LWC V2.10 B1813,2013-11-13 20:27:00,
2013-11-13 13:32:00,52.9,37.6,29.53,North,-999,-999.0,0.0,56,0.00,,,0.00,LWC V2.10 B1813,2013-11-13 20:32:00,
2013-11-13 13:37:00,53.1,37.8,29.53,North,-999,-999.0,0.0,56,0.00,,,0.00,LWC V2.10 B1813,2013-11-13 20:37:00,
2013-11-13 13:42:00,53.0,37.7,29.53,North,-999,-999.0,0.0,56,0.00,,,0.00,LWC V2.10 B1813,2013-11-13 20:42:00,
2013-11-13 13:47:00,52.9,38.1,29.53,North,-999,-999.0,0.0,57,0.00,,,0.00,LWC V2.10 B1813,2013-11-13 20:47:00,
2013-11-13 13:52:00,52.9,37.6,29.53,North,-999,-999.0,0.0,56,0.00,,,0.00,LWC V2.10 B1813,2013-11-13 20:52:00,
2013-11-13 13:57:00,52.8,37.5,29.53,North,-999,-999.0,0.0,56,0.00,,,0.00,LWC V2.10 B1813,2013-11-13 20:57:00,
2013-11-13 14:02:00,52.9,37.6,29.53,North,-999,-999.0,0.0,56,0.00,,,0.00,LWC V2.10 B1813,2013-11-13 21:02:00,
2013-11-13 14:07:00,52.9,37.6,29.53,North,-999,-999.0,0.0,56,0.00,,,0.00,LWC V2.10 B1813,2013-11-13 21:07:00,
2013-11-13 14:12:00,53.1,37.8,29.53,North,-999,-999.0,0.0,56,0.00,,,0.00,LWC V2.10 B1813,2013-11-13 21:12:00,
2013-11-13 14:17:00,53.3,38.0,29.53,North,-999,-999.0,0.0,56,0.00,,,0.00,LWC V2.10 B1813,2013-11-13 21:17:00,
2013-11-13 14:22:00,53.4,38.1,29.53,North,-999,-999.0,0.0,56,0.00,,,0.00,LWC V2.10 B1813,2013-11-13 21:22:00,
2013-11-13 14:27:00,53.5,37.7,29.53,North,-999,-999.0,0.0,55,0.00,,,0.00,LWC V2.10 B1813,2013-11-13 21:27:00,
2013-11-13 14:32:00,53.5,37.7,29.53,North,-999,-999.0,0.0,55,0.00,,,0.00,LWC V2.10 B1813,2013-11-13 21:32:00,
2013-11-13 14:37:00,53.5,37.7,29.53,North,-999,-999.0,0.0,55,0.00,,,0.00,LWC V2.10 B1813,2013-11-13 21:37:00,
2013-11-13 14:42:00,53.6,37.4,29.53,North,-999,-999.0,0.0,54,0.00,,,0.00,LWC V2.10 B1813,2013-11-13 21:42:00,
2013-11-13 14:47:00,53.6,37.8,29.53,North,-999,-999.0,0.0,55,0.00,,,0.00,LWC V2.10 B1813,2013-11-13 21:47:00,
2013-11-13 14:52:00,53.5,37.7,29.53,North,-999,-999.0,0.0,55,0.00,,,0.00,LWC V2.10 B1813,2013-11-13 21:52:00,
2013-11-13 14:57:00,53.5,38.2,29.53,North,-999,-999.0,0.0,56,0.00,,,0.00,LWC V2.10 B1813,2013-11-13 21:57:00,
2013-11-13 15:02:00,53.4,38.1,29.53,North,-999,-999.0,0.0,56,0.00,,,0.00,LWC V2.10 B1813,2013-11-13 22:02:00,
2013-11-13 15:07:00,53.4,38.1,29.53,North,-999,-999.0,0.0,56,0.00,,,0.00,LWC V2.10 B1813,2013-11-13 22:07:00,
2013-11-13 15:12:00,53.3,38.0,29.53,North,-999,-999.0,0.0,56,0.00,,,0.00,LWC V2.10 B1813,2013-11-13 22:12:00,
2013-11-13 15:17:00,53.2,37.5,29.53,North,-999,-999.0,0.0,55,0.00,,,0.00,LWC V2.10 B1813,2013-11-13 22:17:00,
2013-11-13 15:22:00,53.1,37.8,29.53,North,-999,-999.0,0.0,56,0.00,,,0.00,LWC V2.10 B1813,2013-11-13 22:22:00,
2013-11-13 15:27:00,53.1,37.8,29.53,North,-999,-999.0,0.0,56,0.00,,,0.00,LWC V2.10 B1813,2013-11-13 22:27:00,
2013-11-13 15:32:00,53.1,37.8,29.53,North,-999,-999.0,0.0,56,0.00,,,0.00,LWC V2.10 B1813,2013-11-13 22:32:00,
2013-11-13 15:37:00,53.2,37.9,29.53,North,-999,-999.0,0.0,56,0.00,,,0.00,LWC V2.10 B1813,2013-11-13 22:37:00,
2013-11-13 15:42:00,53.3,38.0,29.53,North,-999,-999.0,0.0,56,0.00,,,0.00,LWC V2.10 B1813,2013-11-13 22:42:00,
2013-11-13 15:47:00,53.3,37.5,29.53,North,-999,-999.0,0.0,55,0.00,,,0.00,LWC V2.10 B1813,2013-11-13 22:47:00,
2013-11-13 15:52:00,53.4,38.1,29.53,North,-999,-999.0,0.0,56,0.00,,,0.00,LWC V2.10 B1813,2013-11-13 22:52:00,
2013-11-13 15:57:00,53.4,37.6,29.53,North,-999,-999.0,0.0,55,0.00,,,0.00,LWC V2.10 B1813,2013-11-13 22:57:00,
2013-11-13 16:02:00,53.5,38.2,29.53,North,-999,-999.0,0.0,56,0.00,,,0.00,LWC V2.10 B1813,2013-11-13 23:02:00,
2013-11-13 16:07:00,53.6,37.8,29.53,North,-999,-999.0,0.0,55,0.00,,,0.00,LWC V2.10 B1813,2013-11-13 23:07:00,
2013-11-13 16:12:00,53.7,37.9,29.53,North,-999,-999.0,0.0,55,0.00,,,0.00,LWC V2.10 B1813,2013-11-13 23:12:00,
2013-11-13 16:17:00,53.7,37.9,29.53,North,-999,-999.0,0.0,55,0.00,,,0.00,LWC V2.10 B1813,2013-11-13 23:17:00,
2013-11-13 16:22:00,53.6,37.8,29.53,North,-999,-999.0,0.0,55,0.00,,,0.00,LWC V2.10 B1813,2013-11-13 23:22:00,
2013-11-13 16:27:00,53.5,37.7,29.53,North,-999,-999.0,0.0,55,0.00,,,0.00,LWC V2.10 B1813,2013-11-13 23:27:00,
2013-11-13 16:32:00,53.3,38.0,29.53,North,-999,-999.0,0.0,56,0.00,,,0.00,LWC V2.10 B1813,2013-11-13 23:32:00,
2013-11-13 16:37:00,53.1,38.3,29.53,North,-999,-999.0,0.0,57,0.00,,,0.00,LWC V2.10 B1813,2013-11-13 23:37:00,
2013-11-13 16:42:00,52.8,38.0,29.53,North,-999,-999.0,0.0,57,0.00,,,0.00,LWC V2.10 B1813,2013-11-13 23:42:00,
2013-11-13 16:47:00,52.6,38.2,29.53,North,-999,-999.0,0.0,58,0.00,,,0.00,LWC V2.10 B1813,2013-11-13 23:47:00,
2013-11-13 16:52:00,52.5,38.2,29.53,North,-999,-999.0,0.0,58,0.00,,,0.00,LWC V2.10 B1813,2013-11-13 23:52:00,
2013-11-13 16:57:00,52.4,38.5,29.53,North,-999,-999.0,0.0,59,0.00,,,0.00,LWC V2.10 B1813,2013-11-13 23:57:00,
2013-11-13 17:02:00,52.2,38.3,29.53,North,-999,-999.0,0.0,59,0.00,,,0.00,LWC V2.10 B1813,2013-11-14 00:02:00,
2013-11-13 17:07:00,52.1,38.6,29.53,North,-999,-999.0,0.0,60,0.00,,,0.00,LWC V2.10 B1813,2013-11-14 00:07:00,
2013-11-13 17:12:00,52.0,38.5,29.53,North,-999,-999.0,0.0,60,0.00,,,0.00,LWC V2.10 B1813,2013-11-14 00:12:00,
2013-11-13 17:17:00,51.9,38.5,29.53,North,-999,-999.0,0.0,60,0.00,,,0.00,LWC V2.10 B1813,2013-11-14 00:17:00,
2013-11-13 17:22:00,51.8,38.8,29.53,North,-999,-999.0,0.0,61,0.00,,,0.00,LWC V2.10 B1813,2013-11-14 00:22:00,
2013-11-13 17:27:00,51.7,38.7,29.53,North,-999,-999.0,0.0,61,0.00,,,0.00,LWC V2.10 B1813,2013-11-14 00:27:00,
2013-11-13 17:32:00,51.7,39.1,29.53,North,-999,-999.0,0.0,62,0.00,,,0.00,LWC V2.10 B1813,2013-11-14 00:32:00,
2013-11-13 17:37:00,51.6,39.0,29.53,North,-999,-999.0,0.0,62,0.00,,,0.00,LWC V2.10 B1813,2013-11-14 00:37:00,
2013-11-13 17:42:00,51.5,38.9,29.53,North,-999,-999.0,0.0,62,0.00,,,0.00,LWC V2.10 B1813,2013-11-14 00:42:00,
2013-11-13 17:47:00,51.4,38.8,29.53,North,-999,-999.0,0.0,62,0.00,,,0.00,LWC V2.10 B1813,2013-11-14 00:47:00,
2013-11-13 17:52:00,51.4,38.8,29.53,North,-999,-999.0,0.0,62,0.00,,,0.00,LWC V2.10 B1813,2013-11-14 00:52:00,
2013-11-13 17:57:00,51.2,38.6,29.53,North,-999,-999.0,0.0,62,0.00,,,0.00,LWC V2.10 B1813,2013-11-14 00:57:00,
2013-11-13 18:02:00,51.2,38.6,29.53,North,-999,-999.0,0.0,62,0.00,,,0.00,LWC V2.10 B1813,2013-11-14 01:02:00,
2013-11-13 18:07:00,51.1,38.9,29.53,North,-999,-999.0,0.0,63,0.00,,,0.00,LWC V2.10 B1813,2013-11-14 01:07:00,
2013-11-13 18:12:00,50.9,38.8,29.53,North,-999,-999.0,0.0,63,0.00,,,0.00,LWC V2.10 B1813,2013-11-14 01:12:00,
2013-11-13 18:17:00,50.9,38.8,29.53,North,-999,-999.0,0.0,63,0.00,,,0.00,LWC V2.10 B1813,2013-11-14 01:17:00,
2013-11-13 18:22:00,50.8,38.7,29.53,North,-999,-999.0,0.0,63,0.00,,,0.00,LWC V2.10 B1813,2013-11-14 01:22:00,
2013-11-13 18:27:00,50.7,39.0,29.53,North,-999,-999.0,0.0,64,0.00,,,0.00,LWC V2.10 B1813,2013-11-14 01:27:00,
2013-11-13 18:32:00,50.6,38.9,29.53,North,-999,-999.0,0.0,64,0.00,,,0.00,LWC V2.10 B1813,2013-11-14 01:32:00,
2013-11-13 18:37:00,50.5,38.8,29.53,North,-999,-999.0,0.0,64,0.00,,,0.00,LWC V2.10 B1813,2013-11-14 01:37:00,
2013-11-13 18:42:00,50.4,38.7,29.53,North,-999,-999.0,0.0,64,0.00,,,0.00,LWC V2.10 B1813,2013-11-14 01:42:00,
2013-11-13 18:47:00,50.3,39.0,29.53,North,-999,-999.0,0.0,65,0.00,,,0.00,LWC V2.10 B1813,2013-11-14 01:47:00,
2013-11-13 18:52:00,50.3,38.6,29.53,North,-999,-999.0,0.0,64,0.00,,,0.00,LWC V2.10 B1813,2013-11-14 01:52:00,
2013-11-13 18:57:00,50.3,39.0,29.53,North,-999,-999.0,0.0,65,0.00,,,0.00,LWC V2.10 B1813,2013-11-14 01:57:00,
2013-11-13 19:02:00,50.3,39.0,29.53,North,-999,-999.0,0.0,65,0.00,,,0.00,LWC V2.10 B1813,2013-11-14 02:02:00,
2013-11-13 19:07:00,50.3,39.0,29.53,North,-999,-999.0,0.0,65,0.00,,,0.00,LWC V2.10 B1813,2013-11-14 02:07:00,
2013-11-13 19:12:00,50.2,38.9,29.53,North,-999,-999.0,0.0,65,0.00,,,0.00,LWC V2.10 B1813,2013-11-14 02:12:00,
2013-11-13 19:17:00,50.1,38.8,29.53,North,-999,-999.0,0.0,65,0.00,,,0.00,LWC V2.10 B1813,2013-11-14 02:17:00,
2013-11-13 19:22:00,50.1,38.8,29.53,North,-999,-999.0,0.0,65,0.00,,,0.00,LWC V2.10 B1813,2013-11-14 02:22:00,
2013-11-13 19:27:00,50.0,38.7,29.53,North,-999,-999.0,0.0,65,0.00,,,0.00,LWC V2.10 B1813,2013-11-14 02:27:00,
2013-11-13 19:32:00,50.0,38.7,29.53,North,-999,-999.0,0.0,65,0.00,,,0.00,LWC V2.10 B1813,2013-11-14 02:32:00,
2013-11-13 19:37:00,49.8,38.9,29.53,North,-999,-999.0,0.0,66,0.00,,,0.00,LWC V2.10 B1813,2013-11-14 02:37:00,
2013-11-13 19:42:00,49.8,38.9,29.53,North,-999,-999.0,0.0,66,0.00,,,0.00,LWC V2.10 B1813,2013-11-14 02:42:00,
2013-11-13 19:47:00,49.7,38.8,29.53,North,-999,-999.0,0.0,66,0.00,,,0.00,LWC V2.10 B1813,2013-11-14 02:47:00,
2013-11-13 19:52:00,49.6,38.7,29.53,North,-999,-999.0,0.0,66,0.00,,,0.00,LWC V2.10 B1813,2013-11-14 02:52:00,
2013-11-13 19:57:00,49.5,38.6,29.53,North,-999,-999.0,0.0,66,0.00,,,0.00,LWC V2.10 B1813,2013-11-14 02:57:00,
2013-11-13 20:02:00,49.5,38.6,29.53,North,-999,-999.0,0.0,66,0.00,,,0.00,LWC V2.10 B1813,2013-11-14 03:02:00,
2013-11-13 20:07:00,49.6,38.7,29.53,North,-999,-999.0,0.0,66,0.00,,,0.00,LWC V2.10 B1813,2013-11-14 03:07:00,
2013-11-13 20:12:00,49.5,38.6,29.53,North,-999,-999.0,0.0,66,0.00,,,0.00,LWC V2.10 B1813,2013-11-14 03:12:00,
2013-11-13 20:17:00,49.4,38.5,29.53,North,-999,-999.0,0.0,66,0.00,,,0.00,LWC V2.10 B1813,2013-11-14 03:17:00,
2013-11-13 20:22:00,49.3,38.4,29.53,North,-999,-999.0,0.0,66,0.00,,,0.00,LWC V2.10 B1813,2013-11-14 03:22:00,
2013-11-13 20:27:00,49.3,38.8,29.53,North,-999,-999.0,0.0,67,0.00,,,0.00,LWC V2.10 B1813,2013-11-14 03:27:00,
2013-11-13 20:32:00,49.2,38.3,29.53,North,-999,-999.0,0.0,66,0.00,,,0.00,LWC V2.10 B1813,2013-11-14 03:32:00,
2013-11-13 20:37:00,49.0,38.5,29.53,North,-999,-999.0,0.0,67,0.00,,,0.00,LWC V2.10 B1813,2013-11-14 03:37:00,
2013-11-13 20:42:00,48.9,38.4,29.53,North,-999,-999.0,0.0,67,0.00,,,0.00,LWC V2.10 B1813,2013-11-14 03:42:00,
2013-11-13 20:47:00,48.8,38.3,29.53,North,-999,-999.0,0.0,67,0.00,,,0.00,LWC V2.10 B1813,2013-11-14 03:47:00,
2013-11-13 20:52:00,48.6,38.1,29.53,North,-999,-999.0,0.0,67,0.00,,,0.00,LWC V2.10 B1813,2013-11-14 03:52:00,
2013-11-13 20:57:00,48.5,38.0,29.53,North,-999,-999.0,0.0,67,0.00,,,0.00,LWC V2.10 B1813,2013-11-14 03:57:00,
2013-11-13 21:02:00,48.3,37.9,29.53,North,-999,-999.0,0.0,67,0.00,,,0.00,LWC V2.10 B1813,2013-11-14 04:02:00,
2013-11-13 21:07:00,48.3,38.2,29.53,North,-999,-999.0,0.0,68,0.00,,,0.00,LWC V2.10 B1813,2013-11-14 04:07:00,
2013-11-13 21:12:00,48.2,37.8,29.53,North,-999,-999.0,0.0,67,0.00,,,0.00,LWC V2.10 B1813,2013-11-14 04:12:00,
2013-11-13 21:17:00,48.1,38.0,29.53,North,-999,-999.0,0.0,68,0.00,,,0.00,LWC V2.10 B1813,2013-11-14 04:17:00,
2013-11-13 21:22:00,48.0,38.0,29.53,North,-999,-999.0,0.0,68,0.00,,,0.00,LWC V2.10 B1813,2013-11-14 04:22:00,
2013-11-13 21:27:00,47.9,37.9,29.53,North,-999,-999.0,0.0,68,0.00,,,0.00,LWC V2.10 B1813,2013-11-14 04:27:00,
2013-11-13 21:32:00,47.8,37.8,29.53,North,-999,-999.0,0.0,68,0.00,,,0.00,LWC V2.10 B1813,2013-11-14 04:32:00,
2013-11-13 21:37:00,47.7,37.7,29.53,North,-999,-999.0,0.0,68,0.00,,,0.00,LWC V2.10 B1813,2013-11-14 04:37:00,
2013-11-13 21:42:00,47.7,37.7,29.53,North,-999,-999.0,0.0,68,0.00,,,0.00,LWC V2.10 B1813,2013-11-14 04:42:00,
2013-11-13 21:47:00,47.6,37.6,29.53,North,-999,-999.0,0.0,68,0.00,,,0.00,LWC V2.10 B1813,2013-11-14 04:47:00,
2013-11-13 21:52:00,47.5,37.5,29.53,North,-999,-999.0,0.0,68,0.00,,,0.00,LWC V2.10 B1813,2013-11-14 04:52:00,
2013-11-13 21:57:00,47.6,37.6,29.53,North,-999,-999.0,0.0,68,0.00,,,0.00,LWC V2.10 B1813,2013-11-14 04:57:00,
2013-11-13 22:01:00,47.5,37.5,29.53,North,-999,-999.0,0.0,68,0.00,,,0.00,LWC V2.10 B1813,2013-11-14 05:01:00,
2013-11-13 22:02:00,47.5,37.5,29.53,North,-999,-999.0,0.0,68,0.00,,,0.00,LWC V2.10 B1813,2013-11-14 05:02:00,
2013-11-13 22:07:00,47.4,37.7,29.53,North,-999,-999.0,0.0,69,0.00,,,0.00,LWC V2.10 B1813,2013-11-14 05:07:00,
2013-11-13 22:12:00,47.3,37.7,29.53,North,-999,-999.0,0.0,69,0.00,,,0.00,LWC V2.10 B1813,2013-11-14 05:12:00,
2013-11-13 22:17:00,47.4,38.1,29.53,North,-999,-999.0,0.0,70,0.00,,,0.00,LWC V2.10 B1813,2013-11-14 05:17:00,
2013-11-13 22:22:00,47.4,38.1,29.53,North,-999,-999.0,0.0,70,0.00,,,0.00,LWC V2.10 B1813,2013-11-14 05:22:00,
2013-11-13 22:27:00,47.3,37.7,29.53,North,-999,-999.0,0.0,69,0.00,,,0.00,LWC V2.10 B1813,2013-11-14 05:27:00,
2013-11-13 22:32:00,47.3,38.0,29.53,North,-999,-999.0,0.0,70,0.00,,,0.00,LWC V2.10 B1813,2013-11-14 05:32:00,
2013-11-13 22:37:00,47.3,38.0,29.53,North,-999,-999.0,0.0,70,0.00,,,0.00,LWC V2.10 B1813,2013-11-14 05:37:00,
2013-11-13 22:42:00,47.2,38.3,29.53,North,-999,-999.0,0.0,71,0.00,,,0.00,LWC V2.10 B1813,2013-11-14 05:42:00,
2013-11-13 22:47:00,47.2,38.3,29.53,North,-999,-999.0,0.0,71,0.00,,,0.00,LWC V2.10 B1813,2013-11-14 05:47:00,
2013-11-13 22:52:00,47.2,38.3,29.53,North,-999,-999.0,0.0,71,0.00,,,0.00,LWC V2.10 B1813,2013-11-14 05:52:00,
2013-11-13 22:57:00,47.1,38.5,29.53,North,-999,-999.0,0.0,72,0.00,,,0.00,LWC V2.10 B1813,2013-11-14 05:57:00,
2013-11-13 23:02:00,47.0,38.1,29.53,North,-999,-999.0,0.0,71,0.00,,,0.00,LWC V2.10 B1813,2013-11-14 06:02:00,
2013-11-13 23:07:00,46.9,38.4,29.53,North,-999,-999.0,0.0,72,0.00,,,0.00,LWC V2.10 B1813,2013-11-14 06:07:00,
2013-11-13 23:12:00,46.9,38.7,29.53,North,-999,-999.0,0.0,73,0.00,,,0.00,LWC V2.10 B1813,2013-11-14 06:12:00,
2013-11-13 23:17:00,47.0,38.8,29.53,North,-999,-999.0,0.0,73,0.00,,,0.00,LWC V2.10 B1813,2013-11-14 06:17:00,
2013-11-13 23:22:00,46.9,38.7,29.53,North,-999,-999.0,0.0,73,0.00,,,0.00,LWC V2.10 B1813,2013-11-14 06:22:00,
2013-11-13 23:27:00,46.9,38.7,29.53,North,-999,-999.0,0.0,73,0.00,,,0.00,LWC V2.10 B1813,2013-11-14 06:27:00,
2013-11-13 23:32:00,46.9,38.7,29.53,North,-999,-999.0,0.0,73,0.00,,,0.00,LWC V2.10 B1813,2013-11-14 06:32:00,
2013-11-13 23:37:00,46.7,38.5,29.53,North,-999,-999.0,0.0,73,0.00,,,0.00,LWC V2.10 B1813,2013-11-14 06:37:00,
2013-11-13 23:42:00,46.7,38.5,29.53,North,-999,-999.0,0.0,73,0.00,,,0.00,LWC V2.10 B1813,2013-11-14 06:42:00,
2013-11-13 23:47:00,46.6,38.4,29.53,North,-999,-999.0,0.0,73,0.00,,,0.00,LWC V2.10 B1813,2013-11-14 06:47:00,
2013-11-13 23:52:00,46.6,38.4,29.53,North,-999,-999.0,0.0,73,0.00,,,0.00,LWC V2.10 B1813,2013-11-14 06:52:00,
2013-11-13 23:57:00,46.5,38.7,29.53,North,-999,-999.0,0.0,74,0.00,,,0.00,LWC V2.10 B1813,2013-11-14 06:57:00,